Time;durP1;ratioP1;P1;durP2;ratioP2;P2;SDS_P1;SDS_P2;PMS_P1;PMS_P2;Temp;Humidity;BMP_temperature;BMP_pressure;BME280_temperature;BME280_humidity;BME280_pressure;Samples;Min_cycle;Max_cycle;Signal;HPM_P1;HPM_P2
2023/06/09 00:01:53;;;;;;;1.67;1.30;;;11.20;55.30;;;;;;5071142;28;20195;-50
2023/06/09 00:04:25;;;;;;;2.55;1.23;;;11.20;55.30;;;;;;5071050;28;20548;-51
2023/06/09 00:06:56;;;;;;;1.77;1.13;;;11.20;55.30;;;;;;5070821;28;20218;-53
2023/06/09 00:09:27;;;;;;;2.22;1.40;;;11.20;55.20;;;;;;5071000;28;20230;-55
2023/06/09 00:11:59;;;;;;;1.58;1.10;;;11.20;55.20;;;;;;5070972;28;20255;-54
2023/06/09 00:14:30;;;;;;;1.65;1.20;;;11.30;55.30;;;;;;5070995;28;20190;-53
2023/06/09 00:17:01;;;;;;;2.50;1.35;;;11.30;55.30;;;;;;5070776;28;20214;-51
2023/06/09 00:19:32;;;;;;;1.60;1.00;;;11.30;55.30;;;;;;5071215;28;20218;-52
2023/06/09 00:22:03;;;;;;;1.85;1.40;;;11.30;55.30;;;;;;5071464;28;20566;-53
2023/06/09 00:24:33;;;;;;;1.25;1.13;;;11.30;55.30;;;;;;5074169;28;20197;-50
2023/06/09 00:27:06;;;;;;;1.67;0.98;;;11.30;55.40;;;;;;5074918;28;20276;-54
2023/06/09 00:29:37;;;;;;;2.28;1.13;;;11.40;55.40;;;;;;5074595;28;20222;-49
2023/06/09 00:32:11;;;;;;;1.42;1.00;;;11.40;55.40;;;;;;5074728;28;20647;-52
2023/06/09 00:34:41;;;;;;;1.80;1.10;;;11.40;55.40;;;;;;5074901;28;20194;-56
2023/06/09 00:37:12;;;;;;;1.65;1.17;;;11.40;55.40;;;;;;5074836;28;20223;-53
2023/06/09 00:39:43;;;;;;;1.50;1.10;;;11.40;55.40;;;;;;5074800;28;20206;-50
2023/06/09 00:42:15;;;;;;;1.17;1.02;;;11.50;55.50;;;;;;5074876;28;20244;-55
2023/06/09 00:44:46;;;;;;;1.48;0.93;;;11.50;55.50;;;;;;5074807;28;20203;-54
2023/06/09 00:47:17;;;;;;;1.67;1.10;;;11.50;55.50;;;;;;5074415;28;20244;-54
2023/06/09 00:49:47;;;;;;;1.30;1.10;;;11.50;55.50;;;;;;5074416;28;20283;-49
2023/06/09 00:52:19;;;;;;;1.40;1.20;;;11.50;55.50;;;;;;5074770;28;20249;-48
2023/06/09 00:54:52;;;;;;;1.88;1.10;;;11.50;55.40;;;;;;5074858;28;20252;-52
2023/06/09 00:57:24;;;;;;;1.50;1.10;;;11.60;55.40;;;;;;5074478;28;20286;-53
2023/06/09 00:59:56;;;;;;;1.30;1.13;;;11.60;55.40;;;;;;5094014;28;20190;-51
2023/06/09 01:02:27;;;;;;;1.65;1.20;;;11.60;55.40;;;;;;5094981;28;20658;-54
2023/06/09 01:04:57;;;;;;;1.30;1.20;;;11.60;55.40;;;;;;5094556;28;20255;-49
2023/06/09 01:07:38;;;;;;;1.60;1.00;;;11.60;55.40;;;;;;5094453;28;20228;-52
2023/06/09 01:10:17;;;;;;;2.03;1.17;;;11.70;55.50;;;;;;5094013;28;20221;-53
2023/06/09 01:13:01;;;;;;;2.10;1.20;;;11.70;55.50;;;;;;5094158;28;20194;-55
2023/06/09 01:15:34;;;;;;;1.38;1.27;;;11.70;55.50;;;;;;5094157;28;20263;-49
2023/06/09 01:18:12;;;;;;;1.75;1.00;;;11.70;55.50;;;;;;5093964;28;20699;-51
2023/06/09 01:21:01;;;;;;;1.40;1.00;;;11.70;55.50;;;;;;5074177;28;20202;-54
2023/06/09 01:23:44;;;;;;;1.63;1.08;;;11.80;55.50;;;;;;5074530;28;20659;-51
2023/06/09 01:26:17;;;;;;;1.10;0.90;;;11.80;55.50;;;;;;5074849;28;20705;-53
2023/06/09 01:28:49;;;;;;;1.27;1.02;;;11.80;55.50;;;;;;5084678;28;20190;-56
2023/06/09 01:31:20;;;;;;;1.55;1.00;;;11.80;55.50;;;;;;5093422;28;20852;-56
2023/06/09 01:33:51;;;;;;;1.33;1.00;;;11.90;55.50;;;;;;5093431;28;20268;-51
2023/06/09 01:36:22;;;;;;;1.20;0.90;;;11.90;55.50;;;;;;5092493;28;20730;-51
2023/06/09 01:38:52;;;;;;;1.70;1.05;;;11.90;55.50;;;;;;5094189;28;20194;-53
2023/06/09 01:41:26;;;;;;;1.45;0.98;;;11.90;55.50;;;;;;5093970;28;20258;-55
2023/06/09 01:43:56;;;;;;;1.65;1.13;;;12.00;56.10;;;;;;5093826;28;20201;-56
2023/06/09 01:46:27;;;;;;;1.65;1.10;;;11.90;55.40;;;;;;5093663;28;20259;-57
2023/06/09 01:49:07;;;;;;;1.45;1.17;;;12.00;55.40;;;;;;5094167;28;20194;-55
2023/06/09 01:51:45;;;;;;;1.42;1.20;;;12.00;55.40;;;;;;5094018;28;20595;-50
2023/06/09 01:54:18;;;;;;;1.52;1.42;;;12.00;55.40;;;;;;5093551;28;20201;-53
2023/06/09 01:56:59;;;;;;;1.40;1.27;;;12.10;55.50;;;;;;5089245;28;20644;-52
2023/06/09 01:59:36;;;;;;;2.25;1.33;;;12.10;55.50;;;;;;5074033;28;20270;-51
2023/06/09 02:02:09;;;;;;;2.80;1.45;;;12.10;55.50;;;;;;5073439;28;20584;-53
2023/06/09 02:04:41;;;;;;;1.83;1.20;;;12.10;55.50;;;;;;5073516;28;20195;-57
2023/06/09 02:07:16;;;;;;;2.15;1.30;;;12.10;55.40;;;;;;5073098;28;20706;-52
2023/06/09 02:09:48;;;;;;;1.50;1.10;;;12.20;55.50;;;;;;5072694;28;20218;-51
2023/06/09 02:12:21;;;;;;;2.10;1.40;;;12.20;55.50;;;;;;5073241;28;20566;-52
2023/06/09 02:14:51;;;;;;;1.67;1.20;;;12.20;55.50;;;;;;5072890;28;20240;-57
2023/06/09 02:17:22;;;;;;;1.98;1.17;;;12.20;55.50;;;;;;5072701;28;20671;-56
2023/06/09 02:19:52;;;;;;;1.77;1.23;;;12.20;55.50;;;;;;5072313;28;20207;-55
2023/06/09 02:22:23;;;;;;;2.45;1.70;;;12.20;55.50;;;;;;5072652;28;20198;-53
2023/06/09 02:24:54;;;;;;;1.88;1.30;;;12.30;55.50;;;;;;5072232;28;20199;-52
2023/06/09 02:27:26;;;;;;;2.15;1.70;;;12.30;55.50;;;;;;5072369;28;20199;-50
2023/06/09 02:29:57;;;;;;;1.88;1.40;;;12.30;55.50;;;;;;5072692;28;20222;-54
2023/06/09 02:32:28;;;;;;;1.42;1.30;;;12.30;55.50;;;;;;5072748;28;20194;-55
2023/06/09 02:34:58;;;;;;;1.67;1.40;;;12.30;55.50;;;;;;5072680;28;20199;-52
2023/06/09 02:37:29;;;;;;;1.50;1.40;;;12.30;55.40;;;;;;5072722;28;20198;-55
2023/06/09 02:40:00;;;;;;;1.50;1.15;;;12.40;55.60;;;;;;5072411;28;20205;-54
2023/06/09 02:42:32;;;;;;;1.70;1.30;;;12.40;55.50;;;;;;5072637;28;20208;-55
2023/06/09 02:45:03;;;;;;;1.70;1.20;;;12.40;55.50;;;;;;5072481;28;20199;-52
2023/06/09 02:47:34;;;;;;;1.88;1.27;;;12.40;55.50;;;;;;5071429;28;20194;-51
2023/06/09 02:50:05;;;;;;;2.10;1.40;;;12.50;55.50;;;;;;5071763;28;20218;-56
2023/06/09 02:52:35;;;;;;;1.92;1.48;;;12.50;55.50;;;;;;5072422;28;20195;-53
2023/06/09 02:55:06;;;;;;;1.35;1.23;;;12.50;55.50;;;;;;5072584;28;20206;-52
2023/06/09 02:57:39;;;;;;;2.05;1.33;;;12.50;55.50;;;;;;5072260;28;20206;-48
2023/06/09 03:00:12;;;;;;;1.42;1.25;;;12.50;55.50;;;;;;5089604;28;20650;-55
2023/06/09 03:02:43;;;;;;;1.65;1.20;;;12.50;55.50;;;;;;5092124;28;20669;-53
2023/06/09 03:05:13;;;;;;;2.20;1.30;;;12.60;56.10;;;;;;5092121;28;20713;-55
2023/06/09 03:07:44;;;;;;;2.33;1.63;;;12.60;55.50;;;;;;5092152;28;20190;-54
2023/06/09 03:10:14;;;;;;;1.80;1.45;;;12.60;55.50;;;;;;5092260;28;20226;-53
2023/06/09 03:12:47;;;;;;;2.53;1.50;;;12.60;55.50;;;;;;5092372;28;20535;-52
2023/06/09 03:15:18;;;;;;;2.08;1.40;;;12.60;55.50;;;;;;5092237;28;20229;-50
2023/06/09 03:17:48;;;;;;;2.97;1.55;;;12.60;55.50;;;;;;5091863;28;20201;-54
2023/06/09 03:20:20;;;;;;;2.78;1.70;;;12.70;55.60;;;;;;5091605;28;20216;-51
2023/06/09 03:22:52;;;;;;;2.58;1.73;;;12.70;55.60;;;;;;5091721;28;20222;-54
2023/06/09 03:25:25;;;;;;;2.80;1.33;;;12.70;55.50;;;;;;5086487;28;20207;-53
2023/06/09 03:28:01;;;;;;;1.90;1.27;;;12.70;55.50;;;;;;5085581;28;20205;-53
2023/06/09 03:30:31;;;;;;;2.78;1.80;;;12.70;55.50;;;;;;5091748;28;20232;-56
2023/06/09 03:33:03;;;;;;;3.03;1.65;;;12.70;55.50;;;;;;5091757;28;20592;-55
2023/06/09 03:35:33;;;;;;;1.70;1.30;;;12.80;55.50;;;;;;5081615;28;20215;-54
2023/06/09 03:38:04;;;;;;;2.40;1.60;;;12.80;55.50;;;;;;5071533;28;20203;-52
2023/06/09 03:40:36;;;;;;;2.25;1.70;;;12.80;55.50;;;;;;5073464;28;20659;-55
2023/06/09 03:43:10;;;;;;;3.03;1.55;;;12.80;55.50;;;;;;5091563;28;20198;-56
2023/06/09 03:45:41;;;;;;;1.77;1.52;;;12.80;55.50;;;;;;5091446;28;20689;-50
2023/06/09 03:48:12;;;;;;;2.13;1.50;;;12.80;55.50;;;;;;5091261;28;20221;-55
2023/06/09 03:50:43;;;;;;;1.83;1.52;;;12.90;55.50;;;;;;5091358;28;20746;-54
2023/06/09 03:53:13;;;;;;;2.10;1.40;;;12.90;55.50;;;;;;5091240;28;20215;-56
2023/06/09 03:55:44;;;;;;;2.42;1.77;;;12.90;55.50;;;;;;5090802;28;20689;-50
2023/06/09 03:58:16;;;;;;;3.65;1.83;;;12.90;55.50;;;;;;5074380;28;20209;-54
2023/06/09 04:00:47;;;;;;;2.63;1.88;;;12.90;55.50;;;;;;5071765;28;20214;-53
2023/06/09 04:03:18;;;;;;;2.45;1.90;;;12.90;55.50;;;;;;5071151;28;20423;-56
2023/06/09 04:05:49;;;;;;;2.28;1.73;;;12.90;55.50;;;;;;5071073;28;20230;-55
2023/06/09 04:08:19;;;;;;;2.13;1.60;;;12.90;55.50;;;;;;5071058;28;20275;-53
2023/06/09 04:10:51;;;;;;;2.28;1.60;;;12.90;55.50;;;;;;5071180;28;20744;-53
2023/06/09 04:13:24;;;;;;;2.13;1.50;;;13.00;55.60;;;;;;5071528;28;20230;-54
2023/06/09 04:15:55;;;;;;;2.17;1.80;;;13.00;55.60;;;;;;5070944;28;20226;-55
2023/06/09 04:18:26;;;;;;;2.08;1.70;;;13.00;55.60;;;;;;5071329;28;20199;-53
2023/06/09 04:20:57;;;;;;;2.58;1.70;;;13.00;55.60;;;;;;5071470;28;20260;-55
2023/06/09 04:23:28;;;;;;;2.60;1.52;;;13.00;55.50;;;;;;5071084;28;20209;-51
2023/06/09 04:25:59;;;;;;;1.98;1.52;;;13.00;55.50;;;;;;5070534;28;20222;-56
2023/06/09 04:28:32;;;;;;;3.95;2.00;;;13.00;55.50;;;;;;5071454;28;20252;-53
2023/06/09 04:31:03;;;;;;;2.08;1.50;;;13.00;55.60;;;;;;5071227;28;20223;-54
2023/06/09 04:33:36;;;;;;;2.22;1.70;;;13.00;55.50;;;;;;5070909;28;20205;-55
2023/06/09 04:36:06;;;;;;;2.72;1.70;;;13.00;55.50;;;;;;5070757;28;20214;-49
2023/06/09 04:38:39;;;;;;;3.70;2.25;;;13.10;55.50;;;;;;5070888;28;20208;-49
2023/06/09 04:41:09;;;;;;;2.70;2.00;;;13.10;55.60;;;;;;5070665;28;20563;-52
2023/06/09 04:43:42;;;;;;;2.97;2.03;;;13.10;55.60;;;;;;5070238;28;20195;-55
2023/06/09 04:46:13;;;;;;;2.47;1.90;;;13.10;55.60;;;;;;5070019;28;20703;-51
2023/06/09 04:48:44;;;;;;;2.92;1.92;;;13.10;55.60;;;;;;5069977;28;20317;-48
2023/06/09 04:51:16;;;;;;;2.85;2.20;;;13.10;55.60;;;;;;5069712;28;20230;-49
2023/06/09 04:53:49;;;;;;;2.75;2.17;;;13.10;55.70;;;;;;5070943;28;20195;-53
2023/06/09 04:56:20;;;;;;;3.25;2.30;;;13.10;55.70;;;;;;5070775;28;20215;-47
2023/06/09 04:59:02;;;;;;;3.63;2.45;;;13.10;55.70;;;;;;5084118;28;20194;-53
2023/06/09 05:01:33;;;;;;;3.55;2.20;;;13.10;55.60;;;;;;5090673;28;20651;-49
2023/06/09 05:04:03;;;;;;;2.83;2.20;;;13.10;55.60;;;;;;5090649;28;20286;-51
2023/06/09 05:06:36;;;;;;;3.75;2.40;;;13.20;56.30;;;;;;5090668;28;20574;-51
2023/06/09 05:09:07;;;;;;;3.95;2.35;;;13.20;55.70;;;;;;5090826;28;20198;-53
2023/06/09 05:11:38;;;;;;;3.10;2.17;;;13.20;55.70;;;;;;5093892;28;20227;-50
2023/06/09 05:14:10;;;;;;;2.60;2.00;;;13.20;55.70;;;;;;5094016;28;20202;-50
2023/06/09 05:16:42;;;;;;;3.13;2.20;;;13.20;55.70;;;;;;5091901;28;20221;-52
2023/06/09 05:19:13;;;;;;;4.35;2.35;;;13.20;55.70;;;;;;5094579;28;20657;-55
2023/06/09 05:21:45;;;;;;;3.30;2.38;;;13.20;55.70;;;;;;5094622;28;20198;-52
2023/06/09 05:24:16;;;;;;;4.20;2.38;;;13.20;55.80;;;;;;5094540;28;20202;-50
2023/06/09 05:26:47;;;;;;;2.67;2.05;;;13.20;55.80;;;;;;5089592;28;20249;-51
2023/06/09 05:29:20;;;;;;;2.90;2.28;;;13.20;55.70;;;;;;5074686;28;20197;-50
2023/06/09 05:31:50;;;;;;;4.65;2.83;;;13.20;55.70;;;;;;5073627;28;20259;-50
2023/06/09 05:34:21;;;;;;;3.55;2.40;;;13.20;55.70;;;;;;5073218;28;20202;-56
2023/06/09 05:36:51;;;;;;;3.47;2.35;;;13.20;55.70;;;;;;5075416;28;20218;-48
2023/06/09 05:39:22;;;;;;;2.42;2.08;;;13.30;55.70;;;;;;5093643;28;20191;-55
2023/06/09 05:41:53;;;;;;;3.38;2.58;;;13.20;55.70;;;;;;5094087;28;20194;-51
2023/06/09 05:44:25;;;;;;;3.33;2.40;;;13.30;55.80;;;;;;5093789;28;20200;-50
2023/06/09 05:46:56;;;;;;;3.08;2.10;;;13.30;55.70;;;;;;5093716;28;20217;-53
2023/06/09 05:49:27;;;;;;;3.70;2.42;;;13.30;55.70;;;;;;5093913;28;20198;-52
2023/06/09 05:51:57;;;;;;;4.18;2.35;;;13.30;55.70;;;;;;5094042;28;20694;-49
2023/06/09 05:54:28;;;;;;;3.45;2.47;;;13.30;55.60;;;;;;5093651;28;20194;-55
2023/06/09 05:56:59;;;;;;;4.05;2.10;;;13.30;55.60;;;;;;5088285;28;20743;-53
2023/06/09 05:59:32;;;;;;;3.03;2.22;;;13.30;55.60;;;;;;5074013;28;20252;-53
2023/06/09 06:02:03;;;;;;;2.45;2.05;;;13.30;55.70;;;;;;5073444;28;20202;-50
2023/06/09 06:04:34;;;;;;;3.25;2.40;;;13.30;55.70;;;;;;5073207;28;20579;-53
2023/06/09 06:07:04;;;;;;;2.92;2.25;;;13.30;55.70;;;;;;5073070;28;20760;-49
2023/06/09 06:09:35;;;;;;;3.75;2.55;;;13.30;55.70;;;;;;5073094;28;20665;-50
2023/06/09 06:12:06;;;;;;;2.97;2.00;;;13.30;55.70;;;;;;5073081;28;20230;-51
2023/06/09 06:14:38;;;;;;;3.08;2.28;;;13.30;55.70;;;;;;5073021;28;20195;-53
2023/06/09 06:17:09;;;;;;;3.13;2.20;;;13.30;55.70;;;;;;5072769;28;20223;-49
2023/06/09 06:19:40;;;;;;;3.05;2.20;;;13.30;55.70;;;;;;5073030;28;20203;-55
2023/06/09 06:22:10;;;;;;;3.03;2.10;;;13.30;55.70;;;;;;5072246;28;20203;-54
2023/06/09 06:24:41;;;;;;;2.17;1.80;;;13.30;55.70;;;;;;5073216;28;20195;-51
2023/06/09 06:27:12;;;;;;;2.55;2.00;;;13.30;55.70;;;;;;5072836;28;20223;-55
2023/06/09 06:29:44;;;;;;;2.88;2.00;;;13.30;55.70;;;;;;5072949;28;20282;-50
2023/06/09 06:32:15;;;;;;;2.85;2.10;;;13.40;55.70;;;;;;5072486;28;20222;-52
2023/06/09 06:34:45;;;;;;;2.53;1.90;;;13.30;55.70;;;;;;5072624;28;20195;-52
2023/06/09 06:37:16;;;;;;;2.90;1.90;;;13.30;55.70;;;;;;5072769;28;20191;-50
2023/06/09 06:39:47;;;;;;;2.72;1.85;;;13.30;55.60;;;;;;5072711;28;20195;-50
2023/06/09 06:42:17;;;;;;;2.97;2.00;;;13.40;55.70;;;;;;5073089;28;20199;-50
2023/06/09 06:44:53;;;;;;;3.35;2.15;;;13.30;55.70;;;;;;5071896;28;20670;-52
2023/06/09 06:47:23;;;;;;;3.30;2.10;;;13.30;55.70;;;;;;5076510;28;20201;-52
2023/06/09 06:49:54;;;;;;;2.92;2.20;;;13.30;55.60;;;;;;5092876;28;20198;-55
2023/06/09 06:52:25;;;;;;;2.63;2.10;;;13.30;55.70;;;;;;5092088;28;20228;-53
2023/06/09 06:54:55;;;;;;;2.63;2.00;;;13.30;55.70;;;;;;5092476;28;20267;-50
2023/06/09 06:57:26;;;;;;;2.63;1.95;;;13.30;56.30;;;;;;5092159;28;20286;-55
2023/06/09 06:59:59;;;;;;;3.42;2.22;;;13.40;55.80;;;;;;5093351;28;20603;-52
2023/06/09 07:02:29;;;;;;;3.05;2.00;;;13.30;55.70;;;;;;5091813;28;20186;-52
2023/06/09 07:05:01;;;;;;;2.45;1.80;;;13.40;55.70;;;;;;5091547;28;20198;-53
2023/06/09 07:07:32;;;;;;;2.85;2.13;;;13.40;55.70;;;;;;5091093;28;20228;-56
2023/06/09 07:10:02;;;;;;;3.47;2.05;;;13.30;55.60;;;;;;5092023;28;20673;-48
2023/06/09 07:12:34;;;;;;;2.90;1.95;;;13.30;55.60;;;;;;5092234;28;20309;-56
2023/06/09 07:15:07;;;;;;;2.80;1.98;;;13.30;55.60;;;;;;5091313;28;20193;-52
2023/06/09 07:17:38;;;;;;;3.30;2.40;;;13.40;55.70;;;;;;5091707;28;20558;-53
2023/06/09 07:20:09;;;;;;;2.33;1.83;;;13.40;55.60;;;;;;5092098;28;20315;-55
2023/06/09 07:22:46;;;;;;;2.45;2.10;;;13.40;55.60;;;;;;5092010;28;20190;-53
2023/06/09 07:25:17;;;;;;;2.65;2.17;;;13.40;55.70;;;;;;5091646;28;20280;-51
2023/06/09 07:27:48;;;;;;;2.53;1.90;;;13.40;55.60;;;;;;5086356;28;20198;-56
2023/06/09 07:30:21;;;;;;;2.47;2.05;;;13.30;55.60;;;;;;5091833;28;20194;-48
2023/06/09 07:32:51;;;;;;;2.70;2.17;;;13.30;55.60;;;;;;5076927;28;20218;-49
2023/06/09 07:35:23;;;;;;;2.65;1.83;;;13.30;55.60;;;;;;5071178;28;20222;-56
2023/06/09 07:37:53;;;;;;;2.53;2.00;;;13.30;55.60;;;;;;5071426;28;20304;-50
2023/06/09 07:40:24;;;;;;;2.40;2.00;;;13.30;55.60;;;;;;5071168;28;20874;-52
2023/06/09 07:42:55;;;;;;;2.28;2.03;;;13.30;55.60;;;;;;5071096;28;20686;-54
2023/06/09 07:45:27;;;;;;;3.05;2.35;;;13.30;55.70;;;;;;5070520;28;20215;-52
2023/06/09 07:47:58;;;;;;;2.65;2.28;;;13.30;55.60;;;;;;5077281;28;20182;-53
2023/06/09 07:50:28;;;;;;;3.72;2.60;;;13.30;55.60;;;;;;5090616;28;20194;-51
2023/06/09 07:52:59;;;;;;;3.25;2.40;;;13.30;55.60;;;;;;5091115;28;20218;-50
2023/06/09 07:55:30;;;;;;;3.22;2.90;;;13.30;55.60;;;;;;5090918;28;20218;-53
2023/06/09 07:58:00;;;;;;;4.00;2.70;;;13.30;55.60;;;;;;5077130;28;20647;-50
2023/06/09 08:00:33;;;;;;;4.07;2.70;;;13.30;55.60;;;;;;5071166;28;20210;-52
2023/06/09 08:03:04;;;;;;;3.70;3.20;;;13.30;55.60;;;;;;5071343;28;20195;-55
2023/06/09 08:05:34;;;;;;;4.50;3.53;;;13.30;55.60;;;;;;5070420;28;20214;-54
2023/06/09 08:08:05;;;;;;;4.15;3.20;;;13.30;55.60;;;;;;5070782;28;20194;-52
2023/06/09 08:10:36;;;;;;;4.63;3.45;;;13.30;55.60;;;;;;5070529;28;20199;-52
2023/06/09 08:13:06;;;;;;;4.28;3.42;;;13.30;55.60;;;;;;5070591;28;20223;-54
2023/06/09 08:15:39;;;;;;;3.63;2.85;;;13.30;55.70;;;;;;5070495;28;20229;-55
2023/06/09 08:18:10;;;;;;;3.95;3.38;;;13.30;55.80;;;;;;5070712;28;20198;-52
2023/06/09 08:20:41;;;;;;;4.30;3.50;;;13.30;55.70;;;;;;5070531;28;20206;-55
2023/06/09 08:23:12;;;;;;;3.78;3.25;;;13.30;55.70;;;;;;5071282;28;20285;-50
2023/06/09 08:25:42;;;;;;;4.60;3.40;;;13.30;55.80;;;;;;5070984;28;20222;-52
2023/06/09 08:28:13;;;;;;;4.07;3.47;;;13.30;55.70;;;;;;5070712;28;20275;-52
2023/06/09 08:30:45;;;;;;;4.22;3.42;;;13.30;55.70;;;;;;5070592;28;20194;-56
2023/06/09 08:33:16;;;;;;;4.22;3.50;;;13.30;55.70;;;;;;5070627;28;20276;-52
2023/06/09 08:35:47;;;;;;;4.35;3.35;;;13.30;55.70;;;;;;5070795;28;20232;-54
2023/06/09 08:38:18;;;;;;;4.15;3.50;;;13.30;55.70;;;;;;5071129;28;20202;-50
2023/06/09 08:40:49;;;;;;;4.22;3.78;;;13.20;55.60;;;;;;5071300;28;20202;-54
2023/06/09 08:43:20;;;;;;;4.03;3.60;;;13.30;55.80;;;;;;5071010;28;20656;-55
2023/06/09 08:45:53;;;;;;;4.07;3.42;;;13.30;55.70;;;;;;5073585;28;20234;-54
2023/06/09 08:48:24;;;;;;;4.28;3.38;;;13.30;55.80;;;;;;5074716;28;20191;-47
2023/06/09 08:50:56;;;;;;;4.50;3.45;;;13.30;55.80;;;;;;5074223;28;20234;-54
2023/06/09 08:53:27;;;;;;;5.30;3.72;;;13.20;55.80;;;;;;5074680;28;20219;-52
2023/06/09 08:55:58;;;;;;;4.28;3.65;;;13.30;55.80;;;;;;5074306;28;20587;-52
2023/06/09 08:58:30;;;;;;;4.60;3.45;;;13.30;55.80;;;;;;5074675;28;20203;-52
2023/06/09 09:01:03;;;;;;;3.65;3.22;;;13.20;55.80;;;;;;5074555;28;20198;-55
2023/06/09 09:03:34;;;;;;;4.05;3.33;;;13.30;55.80;;;;;;5074659;28;20650;-52
2023/06/09 09:06:05;;;;;;;4.00;3.30;;;13.30;55.90;;;;;;5073804;28;20215;-55
2023/06/09 09:08:36;;;;;;;4.03;3.33;;;13.30;55.80;;;;;;5074059;28;20194;-55
2023/06/09 09:11:06;;;;;;;4.10;3.70;;;13.20;55.90;;;;;;5074159;28;20203;-52
2023/06/09 09:13:37;;;;;;;3.72;3.35;;;13.30;55.80;;;;;;5093544;28;20228;-52
2023/06/09 09:16:13;;;;;;;3.45;3.10;;;13.30;55.80;;;;;;5094736;28;20218;-51
2023/06/09 09:18:48;;;;;;;3.92;3.42;;;13.30;55.80;;;;;;5094345;28;20197;-55
2023/06/09 09:21:25;;;;;;;3.47;3.17;;;13.30;55.80;;;;;;5092839;28;20201;-51
2023/06/09 09:24:00;;;;;;;3.50;3.08;;;13.30;55.80;;;;;;5087794;28;20202;-49
2023/06/09 09:26:32;;;;;;;3.65;3.28;;;13.30;55.90;;;;;;5075289;28;20363;-53
2023/06/09 09:29:06;;;;;;;3.35;2.85;;;13.30;55.80;;;;;;5094389;28;20534;-55
2023/06/09 09:31:41;;;;;;;3.65;2.97;;;13.20;55.80;;;;;;5094018;28;20228;-52
2023/06/09 09:34:15;;;;;;;3.53;2.92;;;13.20;55.80;;;;;;5093730;28;20208;-52
2023/06/09 09:36:47;;;;;;;3.50;3.20;;;13.20;55.90;;;;;;5094298;28;20217;-52
2023/06/09 09:39:18;;;;;;;3.28;2.97;;;13.20;56.00;;;;;;5076946;28;20706;-54
2023/06/09 09:42:07;;;;;;;3.35;2.90;;;13.20;56.00;;;;;;5072861;28;20201;-54
2023/06/09 09:44:41;;;;;;;3.58;3.22;;;13.20;56.00;;;;;;5073586;28;20191;-53
2023/06/09 09:47:15;;;;;;;4.13;3.50;;;13.30;56.10;;;;;;5073050;28;20264;-51
2023/06/09 09:49:58;;;;;;;3.80;3.13;;;13.20;56.00;;;;;;5073461;28;20191;-55
2023/06/09 09:52:30;;;;;;;3.25;2.83;;;13.30;56.10;;;;;;5073322;28;20241;-55
2023/06/09 09:55:04;;;;;;;3.17;2.80;;;13.30;56.10;;;;;;5075400;28;20222;-53
2023/06/09 09:57:36;;;;;;;3.58;2.92;;;13.30;56.10;;;;;;5082211;28;20222;-53
2023/06/09 10:00:12;;;;;;;3.35;2.50;;;13.30;56.10;;;;;;5073149;28;20217;-52
2023/06/09 10:02:45;;;;;;;3.22;2.80;;;13.30;56.10;;;;;;5073561;28;20233;-54
2023/06/09 10:05:19;;;;;;;3.10;2.80;;;13.20;56.00;;;;;;5072714;28;20218;-54
2023/06/09 10:07:56;;;;;;;3.22;2.85;;;13.20;56.10;;;;;;5073202;28;20194;-52
2023/06/09 10:10:28;;;;;;;3.40;3.10;;;13.30;56.10;;;;;;5072890;28;20669;-55
2023/06/09 10:13:00;;;;;;;2.83;2.50;;;13.20;56.00;;;;;;5072942;28;20226;-52
2023/06/09 10:15:30;;;;;;;3.75;3.08;;;13.30;56.10;;;;;;5073100;28;20214;-54
2023/06/09 10:18:04;;;;;;;3.33;3.03;;;13.20;56.00;;;;;;5073089;28;20195;-54
2023/06/09 10:20:35;;;;;;;3.42;3.10;;;13.20;56.10;;;;;;5072137;28;20203;-51
2023/06/09 10:23:07;;;;;;;2.95;2.72;;;13.20;56.10;;;;;;5072572;28;20195;-53
2023/06/09 10:25:37;;;;;;;3.65;2.88;;;13.20;56.10;;;;;;5072027;28;20215;-54
2023/06/09 10:28:08;;;;;;;2.85;2.55;;;13.20;56.10;;;;;;5072478;28;20199;-52
2023/06/09 10:30:39;;;;;;;3.38;2.80;;;13.20;56.10;;;;;;5072630;28;20195;-53
2023/06/09 10:33:16;;;;;;;3.67;2.85;;;13.20;56.00;;;;;;5072207;28;20241;-50
2023/06/09 10:35:49;;;;;;;3.08;2.78;;;13.20;56.00;;;;;;5072321;28;20214;-55
2023/06/09 10:38:34;;;;;;;3.50;2.63;;;13.20;55.90;;;;;;5072475;28;20195;-54
2023/06/09 10:41:12;;;;;;;3.20;2.80;;;13.20;55.90;;;;;;5071875;28;20564;-55
2023/06/09 10:44:10;;;;;;;2.95;2.65;;;13.20;55.90;;;;;;5071973;28;20277;-52
2023/06/09 10:46:47;;;;;;;3.08;2.78;;;13.20;55.90;;;;;;5071586;28;20617;-54
2023/06/09 10:49:45;;;;;;;3.13;2.70;;;13.20;55.80;;;;;;5071492;28;20190;-54
2023/06/09 10:52:52;;;;;;;3.30;3.00;;;13.20;55.80;;;;;;5072416;28;20285;-53
2023/06/09 10:55:23;;;;;;;3.45;2.70;;;13.20;55.80;;;;;;5072358;28;20685;-55
2023/06/09 10:57:54;;;;;;;3.67;2.60;;;13.20;55.80;;;;;;5072730;28;20198;-53
2023/06/09 11:00:25;;;;;;;3.50;2.90;;;13.20;55.80;;;;;;5071621;28;20202;-50
2023/06/09 11:03:32;;;;;;;3.92;3.08;;;13.10;56.40;;;;;;5080325;28;20645;-49
2023/06/09 11:06:05;;;;;;;4.20;2.78;;;13.10;55.80;;;;;;5091564;28;20309;-48
2023/06/09 11:09:07;;;;;;;2.85;2.65;;;13.10;55.80;;;;;;5091315;28;20669;-52
2023/06/09 11:11:53;;;;;;;4.40;2.90;;;13.10;55.80;;;;;;5078778;28;20196;-51
2023/06/09 11:14:56;;;;;;;4.13;3.65;;;13.10;55.80;;;;;;5092099;28;20229;-52
2023/06/09 11:17:29;;;;;;;4.50;3.30;;;13.10;55.70;;;;;;5092287;28;20281;-52
2023/06/09 11:20:17;;;;;;;4.00;3.35;;;13.10;55.70;;;;;;5091486;28;20291;-53
2023/06/09 11:23:05;;;;;;;3.58;3.15;;;13.10;55.70;;;;;;5092074;28;20202;-50
2023/06/09 11:25:42;;;;;;;3.55;3.25;;;13.10;55.70;;;;;;5091464;28;20301;-52
2023/06/09 11:28:23;;;;;;;3.75;3.33;;;13.10;55.70;;;;;;5075655;28;20596;-52
2023/06/09 11:31:08;;;;;;;4.65;3.08;;;13.10;55.70;;;;;;5074029;28;20650;-53
2023/06/09 11:33:50;;;;;;;3.83;3.38;;;13.10;55.70;;;;;;5072321;28;20230;-50
2023/06/09 11:36:32;;;;;;;3.50;3.17;;;13.00;55.70;;;;;;5091491;28;20688;-55
2023/06/09 11:39:09;;;;;;;3.80;3.22;;;13.00;55.60;;;;;;5091496;28;20259;-47
2023/06/09 11:41:40;;;;;;;3.50;3.20;;;13.00;55.60;;;;;;5091514;28;20243;-50
2023/06/09 11:44:10;;;;;;;2.85;2.58;;;13.00;55.60;;;;;;5087791;28;20815;-52
2023/06/09 11:46:41;;;;;;;3.28;2.92;;;13.00;55.70;;;;;;5071129;28;20218;-55
2023/06/09 11:49:12;;;;;;;3.65;3.15;;;13.00;55.70;;;;;;5070439;28;20202;-47
2023/06/09 11:52:02;;;;;;;3.63;2.95;;;13.00;55.70;;;;;;5089258;28;20232;-50
2023/06/09 11:54:50;;;;;;;3.63;3.22;;;13.00;55.70;;;;;;5091354;28;20251;-51
2023/06/09 11:57:21;;;;;;;3.40;2.63;;;13.00;55.70;;;;;;5082540;28;20210;-53
2023/06/09 11:59:52;;;;;;;3.90;3.30;;;13.00;55.70;;;;;;5071011;28;20195;-52
2023/06/09 12:02:25;;;;;;;3.28;2.70;;;12.90;55.60;;;;;;5070970;28;20230;-50
2023/06/09 12:04:56;;;;;;;3.00;2.80;;;12.90;55.70;;;;;;5070612;28;20194;-49
2023/06/09 12:07:26;;;;;;;3.58;3.10;;;12.90;55.60;;;;;;5070983;28;20199;-53
2023/06/09 12:10:03;;;;;;;3.83;3.05;;;12.90;55.70;;;;;;5071044;28;20198;-49
2023/06/09 12:12:44;;;;;;;4.07;3.10;;;12.90;55.60;;;;;;5071079;28;20213;-50
2023/06/09 12:15:15;;;;;;;3.45;2.80;;;12.90;55.70;;;;;;5070809;28;20218;-50
2023/06/09 12:17:46;;;;;;;2.92;2.63;;;12.90;55.60;;;;;;5070732;28;20202;-51
2023/06/09 12:20:25;;;;;;;3.47;3.08;;;12.90;55.60;;;;;;5073898;28;20666;-56
2023/06/09 12:22:57;;;;;;;3.42;2.78;;;12.90;55.60;;;;;;5074830;28;20677;-52
2023/06/09 12:25:30;;;;;;;3.33;2.67;;;12.90;55.60;;;;;;5075336;28;20218;-50
2023/06/09 12:28:13;;;;;;;3.67;3.17;;;12.80;55.60;;;;;;5089560;28;20202;-53
2023/06/09 12:30:47;;;;;;;3.90;3.00;;;12.90;55.60;;;;;;5095504;28;20194;-53
2023/06/09 12:33:19;;;;;;;3.13;2.55;;;12.90;55.60;;;;;;5095401;28;20278;-50
2023/06/09 12:35:50;;;;;;;3.70;2.90;;;12.80;55.60;;;;;;5095463;28;20210;-53
2023/06/09 12:38:22;;;;;;;3.05;2.75;;;12.80;55.60;;;;;;5095507;28;20197;-53
2023/06/09 12:40:55;;;;;;;3.80;2.60;;;12.80;55.60;;;;;;5095146;28;20221;-50
2023/06/09 12:43:27;;;;;;;3.30;2.78;;;12.80;55.60;;;;;;5095183;28;20583;-56
2023/06/09 12:45:59;;;;;;;3.42;2.75;;;12.80;55.70;;;;;;5094971;28;20218;-52
2023/06/09 12:48:30;;;;;;;3.13;2.60;;;12.80;55.70;;;;;;5095414;28;20193;-52
2023/06/09 12:51:00;;;;;;;2.70;2.50;;;12.80;55.70;;;;;;5095016;28;20221;-52
2023/06/09 12:53:31;;;;;;;3.67;2.60;;;12.80;55.70;;;;;;5094921;28;20226;-50
2023/06/09 12:56:03;;;;;;;3.30;2.65;;;12.70;55.60;;;;;;5094020;28;20679;-50
2023/06/09 12:58:34;;;;;;;2.80;2.60;;;12.80;55.70;;;;;;5076162;28;20203;-54
2023/06/09 13:01:05;;;;;;;3.65;2.83;;;12.70;55.60;;;;;;5073738;28;20195;-50
2023/06/09 13:03:36;;;;;;;2.60;2.40;;;12.70;55.60;;;;;;5074373;28;20203;-50
2023/06/09 13:06:07;;;;;;;3.35;2.65;;;12.70;55.60;;;;;;5074281;28;20219;-52
2023/06/09 13:08:38;;;;;;;3.15;2.85;;;12.70;55.60;;;;;;5074597;28;20256;-53
2023/06/09 13:11:11;;;;;;;2.65;2.35;;;12.70;55.60;;;;;;5074641;28;20650;-51
2023/06/09 13:13:43;;;;;;;2.90;2.60;;;12.70;55.60;;;;;;5074245;28;20249;-51
2023/06/09 13:16:13;;;;;;;2.40;2.20;;;12.70;55.60;;;;;;5076178;28;20423;-55
2023/06/09 13:18:44;;;;;;;2.72;2.35;;;12.70;55.60;;;;;;5094149;28;20194;-51